Monday, June 25, 2018, 9:27 AM EDT
Back to Local

KPWM, Portland International Jetport

Location: Portland, ME, United States Lat: 43.65
Local Time: 9:27 AM EDT (13:27 GMT) Lon: -70.3
Time Zone: US/Eastern Elev: 75 ft

Show me the last for .
Show Decoded

2018-06-25 08:51 METAR KPWM 251251Z 04008KT 010V080 10SM SCT012 BKN020 OVC048 16/14 A2988 RMK AO2
                 RAB19E45 SLP117 P0000 T01560139 =
2018-06-25 07:58 METAR KPWM 251158Z 04010G15KT 350V070 10SM BKN012 OVC032 16/14 A2986 RMK AO2
                 T01610144 =
2018-06-25 07:51 METAR KPWM 251151Z 05009KT 020V080 10SM BKN008 BKN027 OVC070 16/14 A2985 RMK AO2
                 SLP109 60003 70004 T01610144 10183 20161 53020 =
2018-06-25 06:51 METAR KPWM 251051Z 05007G17KT 350V080 10SM OVC008 17/16 A2983 RMK AO2 SLP099
                 T01670156 $ =
2018-06-25 06:31 METAR KPWM 251031Z 02008KT 340V070 10SM BKN008 OVC012 17/16 A2982 RMK AO2
                 T01720161 $ =
2018-06-25 05:59 METAR KPWM 250959Z 05008KT 10SM FEW008 BKN013 OVC018 18/17 A2981 RMK AO2
                 T01780172 $ =
2018-06-25 05:51 METAR KPWM 250951Z VRB05KT 10SM SCT010 OVC018 18/17 A2981 RMK AO2 RAE26 SLP094
                 P0000 T01780172 $ =
2018-06-25 05:12 METAR KPWM 250912Z VRB05KT 10SM -RA BKN016 OVC044 18/17 A2980 RMK AO2 P0000
                 T01780172 $ =
2018-06-25 04:51 METAR KPWM 250851Z VRB05KT 10SM -RA BKN010 OVC016 18/17 A2979 RMK AO2
                 RAE00B23E33B49 SLP089 P0000 60003 T01780172 53006 $ =
2018-06-25 04:18 METAR KPWM 250818Z AUTO VRB05KT 10SM BKN011 OVC090 18/17 A2979 RMK AO2 RAE00
                 P0000 T01780172 $ =
2018-06-25 03:51 METAR KPWM 250751Z AUTO VRB06KT 10SM -RA FEW009 BKN035 OVC085 18/17 A2978 RMK
                 AO2 RAE07B36 SLP085 P0001 T01780172 $ =
2018-06-25 03:49 METAR KPWM 250749Z AUTO VRB06KT 10SM FEW009 BKN035 OVC085 18/17 A2979 RMK AO2
                 RAE07B36E46 P0001 $ =
2018-06-25 03:28 METAR KPWM 250728Z AUTO VRB06KT 10SM FEW011 BKN024 OVC075 18/17 A2978 RMK AO2
                 RAE07 P0001 T01780172 $ =
2018-06-25 02:51 METAR KPWM 250651Z AUTO VRB04KT 6SM -RA BR OVC065 18/18 A2978 RMK AO2 RAE25B45
                 SLP083 P0002 T01830178 $ =
2018-06-25 01:51 METAR KPWM 250551Z AUTO 30003KT 10SM -RA OVC055 18/18 A2978 RMK AO2 RAB48 SLP085
                 P0000 60001 T01830178 10194 20178 58012 $ =
2018-06-25 00:51 METAR KPWM 250451Z AUTO 35003KT 10SM OVC055 18/17 A2979 RMK AO2 RAB0358E51
                 SLP089 P0001 T01780172 402280122 $ =
2018-06-24 23:51 METAR KPWM 250351Z VRB03KT 10SM FEW035 OVC055 18/17 A2981 RMK AO2 SLP095 LAST
                 T01830172 $ =
2018-06-24 22:51 METAR KPWM 250251Z 00000KT 10SM BKN034 OVC050 18/17 A2982 RMK AO2 RAB06E18
                 SLP096 P0000 60000 T01830172 58003 $ =
2018-06-24 21:51 METAR KPWM 250151Z 00000KT 10SM OVC040 19/16 A2982 RMK AO2 SLP099 T01890156 $ =
2018-06-24 20:51 METAR KPWM 250051Z VRB03KT 10SM OVC038 18/17 A2982 RMK AO2 SLP098 T01830167 $ =
2018-06-24 20:40 METAR KPWM 250040Z VRB03KT 10SM FEW023 SCT028 OVC038 18/17 A2982 RMK AO2
                 T01830167 $ =
2018-06-24 19:51 METAR KPWM 242351Z 31003KT 10SM BKN026 OVC031 19/16 A2983 RMK AO2 SLP100
                 T01940156 10222 20194 53006 $ =
2018-06-24 19:19 METAR KPWM 242319Z 26003KT 10SM OVC029 19/15 A2982 RMK AO2 T01940150 $ =
2018-06-24 18:51 METAR KPWM 242251Z 16004KT 10SM OVC030 19/15 A2982 RMK AO2 SLP096 T01940150 $ =
2018-06-24 17:51 METAR KPWM 242151Z 18008KT 10SM OVC030 19/15 A2981 RMK AO2 SLP093 T01940150 $ =
2018-06-24 16:51 METAR KPWM 242051Z 16010KT 10SM OVC031 20/16 A2981 RMK AO2 SLP093 T02000156
                 53008 $ =
2018-06-24 15:51 METAR KPWM 241951Z VRB06KT 10SM OVC031 22/16 A2979 RMK AO2 SLP088 T02170161 $ =
2018-06-24 14:51 METAR KPWM 241851Z 16008KT 10SM OVC028 20/16 A2979 RMK AO2 SLP089 T02000156 $ =
2018-06-24 14:19 METAR KPWM 241819Z 15009KT 10SM BKN026 BKN100 BKN160 21/16 A2979 RMK AO2
                 T02060156 $ =
2018-06-24 13:51 METAR KPWM 241751Z 15011KT 10SM SCT026 BKN095 BKN160 22/16 A2978 RMK AO2 SLP085
                 T02170161 10228 20156 58010 $ =
2018-06-24 12:51 METAR KPWM 241651Z VRB03KT 10SM SCT026 BKN075 BKN160 22/16 A2980 RMK AO2 SLP092
                 T02170156 $ =
2018-06-24 11:51 METAR KPWM 241551Z VRB03KT 10SM BKN070 BKN140 22/15 A2981 RMK AO2 SLP094
                 T02170150 $ =
2018-06-24 10:51 METAR KPWM 241451Z VRB04KT 10SM SCT021 BKN075 21/15 A2981 RMK AO2 SLP095
                 T02060150 51005 $ =
2018-06-24 09:51 METAR KPWM 241351Z 25008KT 10SM SCT075 19/14 A2981 RMK AO2 SLP094 T01890139 $ =

Support USWX by starting your Amazon purchase here.